Time;durP1;ratioP1;P1;durP2;ratioP2;P2;SDS_P1;SDS_P2;PMS_P1;PMS_P2;Temp;Humidity;BMP_temperature;BMP_pressure;BME280_temperature;BME280_humidity;BME280_pressure;Samples;Min_cycle;Max_cycle;Signal;HPM_P1;HPM_P2
2022/08/12 00:45:07;;;;;;;1.70;1.60;;;30.80;36.20;;;;;;5057343;28;20516;-80
2022/08/12 00:47:34;;;;;;;1.80;1.70;;;30.80;36.20;;;;;;5057969;28;20538;-80
2022/08/12 00:50:03;;;;;;;1.70;1.70;;;30.70;36.10;;;;;;5057252;28;20529;-80
2022/08/12 00:52:31;;;;;;;1.80;1.70;;;30.70;36.10;;;;;;5057943;28;20508;-80
2022/08/12 00:55:01;;;;;;;1.47;1.47;;;30.70;36.20;;;;;;5057160;28;20878;-81
2022/08/12 00:57:30;;;;;;;1.53;1.53;;;30.70;36.20;;;;;;5057575;28;20944;-81
2022/08/12 01:00:00;;;;;;;1.70;1.60;;;30.70;36.20;;;;;;5058248;28;20450;-81
2022/08/12 01:02:29;;;;;;;1.60;1.60;;;30.70;36.20;;;;;;5057864;28;20471;-80
2022/08/12 01:13:18;;;;;;;2.13;1.90;;;30.50;36.20;;;;;;5058362;28;20466;-81
2022/08/12 01:15:49;;;;;;;1.97;1.87;;;30.50;36.20;;;;;;5056969;28;20471;-83
2022/08/12 01:18:17;;;;;;;1.50;1.50;;;30.40;36.20;;;;;;5057839;28;20476;-80
2022/08/12 01:20:48;;;;;;;1.50;1.50;;;30.40;36.20;;;;;;5056859;28;20466;-80
2022/08/12 01:23:39;;;;;;;1.57;1.57;;;30.40;36.20;;;;;;5057517;28;20413;-81
2022/08/12 01:26:10;;;;;;;1.83;1.73;;;30.40;36.20;;;;;;5057909;28;20449;-80
2022/08/12 01:28:38;;;;;;;1.40;1.40;;;30.30;36.20;;;;;;5056877;28;20500;-80
2022/08/12 01:31:06;;;;;;;1.50;1.40;;;30.30;36.20;;;;;;5057900;28;20533;-81
2022/08/12 01:33:37;;;;;;;1.80;1.70;;;30.30;36.30;;;;;;5060715;28;20468;-80
2022/08/12 01:36:05;;;;;;;1.70;1.60;;;30.30;36.30;;;;;;5060969;28;20477;-81
2022/08/12 01:38:35;;;;;;;1.63;1.63;;;30.20;36.20;;;;;;5059454;28;20440;-81
2022/08/12 01:41:04;;;;;;;1.70;1.60;;;30.20;36.30;;;;;;5057242;28;20449;-81
2022/08/12 01:43:34;;;;;;;1.70;1.60;;;30.10;36.20;;;;;;5056705;28;20557;-81
2022/08/12 01:46:06;;;;;;;1.70;1.60;;;30.10;36.30;;;;;;5056828;28;20517;-81
2022/08/12 01:49:00;;;;;;;1.43;1.43;;;30.10;36.40;;;;;;5057055;28;20484;-81
2022/08/12 01:51:39;;;;;;;1.40;1.40;;;30.10;36.40;;;;;;5057183;28;20450;-80
2022/08/12 01:54:27;;;;;;;1.70;1.60;;;30.00;36.40;;;;;;5057230;28;20458;-81
2022/08/12 01:56:58;;;;;;;1.23;1.23;;;30.00;36.40;;;;;;5056894;28;20525;-81
2022/08/12 01:59:48;;;;;;;1.50;1.40;;;29.90;36.40;;;;;;5056478;28;20442;-80
2022/08/12 02:02:17;;;;;;;1.60;1.50;;;29.90;36.40;;;;;;5058261;28;20523;-81
2022/08/12 02:13:43;;;;;;;1.73;1.70;;;29.80;36.50;;;;;;5060059;28;20497;-80
2022/08/12 02:16:29;;;;;;;1.30;1.30;;;29.70;36.60;;;;;;5059889;28;20469;-80
2022/08/12 02:19:05;;;;;;;1.47;1.47;;;29.70;36.50;;;;;;5059773;28;20412;-80
2022/08/12 02:21:52;;;;;;;1.60;1.60;;;29.70;36.60;;;;;;5059847;28;20450;-81
2022/08/12 02:24:21;;;;;;;1.40;1.40;;;29.70;36.50;;;;;;5060053;28;20445;-81
2022/08/12 02:26:51;;;;;;;1.70;1.70;;;29.60;36.50;;;;;;5059855;28;20435;-80
2022/08/12 02:29:19;;;;;;;2.80;1.63;;;29.60;36.50;;;;;;5059990;28;20417;-81
2022/08/12 02:31:48;;;;;;;1.70;1.60;;;29.60;36.50;;;;;;5060157;28;20493;-80
2022/08/12 02:34:16;;;;;;;1.40;1.40;;;29.60;36.60;;;;;;5059811;28;20464;-80
2022/08/12 02:36:44;;;;;;;1.70;1.70;;;29.50;36.50;;;;;;5059491;28;20470;-81
2022/08/12 02:39:14;;;;;;;2.43;1.70;;;29.50;36.60;;;;;;5059388;28;20427;-80
2022/08/12 02:41:43;;;;;;;1.30;1.30;;;29.50;36.50;;;;;;5059559;28;20447;-81
2022/08/12 02:44:11;;;;;;;1.43;1.40;;;29.50;36.50;;;;;;5059583;28;20835;-81
2022/08/12 02:46:39;;;;;;;1.40;1.30;;;29.40;36.50;;;;;;5058364;28;20448;-81
2022/08/12 02:49:10;;;;;;;2.00;1.90;;;29.40;36.60;;;;;;5059558;28;20541;-82
2022/08/12 02:51:40;;;;;;;1.57;1.57;;;29.40;36.60;;;;;;5059590;28;20442;-82
2022/08/12 02:54:08;;;;;;;1.40;1.40;;;29.30;36.50;;;;;;5059246;28;20561;-82
2022/08/12 02:56:39;;;;;;;1.70;1.70;;;29.30;36.60;;;;;;5058959;28;20536;-83
2022/08/12 02:59:09;;;;;;;1.90;1.80;;;29.30;36.60;;;;;;5059882;28;20443;-82
2022/08/12 03:01:39;;;;;;;1.77;1.67;;;29.20;36.60;;;;;;5059725;28;20466;-82
2022/08/12 03:04:19;;;;;;;2.20;2.10;;;29.20;36.60;;;;;;5059664;28;20432;-80
2022/08/12 03:06:51;;;;;;;1.90;1.80;;;29.20;36.80;;;;;;5061175;28;20442;-81
2022/08/12 03:09:20;;;;;;;1.90;1.80;;;29.20;36.70;;;;;;5058577;28;20525;-80
2022/08/12 03:11:55;;;;;;;2.03;1.93;;;29.10;36.60;;;;;;5059532;28;20458;-80
2022/08/12 03:14:26;;;;;;;2.33;2.13;;;29.10;36.70;;;;;;5059309;28;20435;-81
2022/08/12 03:16:57;;;;;;;1.73;1.73;;;29.10;36.70;;;;;;5059161;28;20433;-80
2022/08/12 03:19:29;;;;;;;2.00;1.80;;;29.00;36.70;;;;;;5058839;28;20448;-80
2022/08/12 03:22:11;;;;;;;1.80;1.70;;;29.00;36.70;;;;;;5058910;28;20471;-80
2022/08/12 03:24:43;;;;;;;2.00;1.90;;;29.00;36.70;;;;;;5058457;28;20442;-80
2022/08/12 03:27:12;;;;;;;2.00;1.90;;;29.00;36.80;;;;;;5058785;28;20462;-80
2022/08/12 03:29:41;;;;;;;2.43;2.33;;;28.90;36.80;;;;;;5058424;28;20440;-80
2022/08/12 03:32:18;;;;;;;1.83;1.73;;;28.90;36.80;;;;;;5058513;28;20427;-80
2022/08/12 03:35:06;;;;;;;1.93;1.83;;;28.90;36.80;;;;;;5058256;28;20462;-81
2022/08/12 03:37:35;;;;;;;2.07;1.97;;;28.80;36.20;;;;;;5058179;28;20470;-81
2022/08/12 03:40:04;;;;;;;1.80;1.80;;;28.80;36.80;;;;;;5058997;28;20429;-81
2022/08/12 03:42:34;;;;;;;1.77;1.67;;;28.80;36.90;;;;;;5059722;28;20454;-81
2022/08/12 04:01:56;;;;;;;2.00;1.90;;;28.60;37.00;;;;;;5058427;28;20858;-80
2022/08/12 04:04:25;;;;;;;1.80;1.70;;;28.50;37.00;;;;;;5058315;28;20470;-80
2022/08/12 04:06:55;;;;;;;1.90;1.80;;;28.50;37.00;;;;;;5060548;28;20497;-81
2022/08/12 04:09:23;;;;;;;1.87;1.77;;;28.50;36.90;;;;;;5058628;28;20450;-81
2022/08/12 04:14:36;;;;;;;2.70;1.80;;;28.50;37.00;;;;;;5058301;28;20557;-82
2022/08/12 04:17:05;;;;;;;2.20;2.10;;;28.40;37.10;;;;;;5058490;28;20538;-81
2022/08/12 04:19:33;;;;;;;1.90;1.80;;;28.40;37.10;;;;;;5057775;28;20526;-82
2022/08/12 04:22:02;;;;;;;1.90;1.80;;;28.40;37.00;;;;;;5057610;28;20502;-82
2022/08/12 04:24:33;;;;;;;1.90;1.80;;;28.40;37.10;;;;;;5056998;28;20466;-82
2022/08/12 04:27:01;;;;;;;2.00;1.90;;;28.40;37.00;;;;;;5057899;28;20447;-82
2022/08/12 04:29:29;;;;;;;1.70;1.70;;;28.30;37.00;;;;;;5057387;28;20481;-82
2022/08/12 04:32:17;;;;;;;1.93;1.83;;;28.30;37.10;;;;;;5057584;28;20419;-81
2022/08/12 04:34:45;;;;;;;1.90;1.80;;;28.30;37.00;;;;;;5057776;28;20471;-81
2022/08/12 04:37:15;;;;;;;5.03;2.07;;;28.30;37.00;;;;;;5058271;28;20541;-82
2022/08/12 04:39:44;;;;;;;1.90;1.90;;;28.30;37.00;;;;;;5058233;28;20529;-81
2022/08/12 04:42:12;;;;;;;2.30;2.00;;;28.30;36.90;;;;;;5057584;28;20437;-82
2022/08/12 04:44:41;;;;;;;1.70;1.70;;;28.30;36.90;;;;;;5056635;28;20448;-82
2022/08/12 04:47:10;;;;;;;1.90;1.80;;;28.20;37.00;;;;;;5057804;28;20409;-82
2022/08/12 04:49:39;;;;;;;1.93;1.83;;;28.20;37.00;;;;;;5057112;28;20512;-81
2022/08/12 04:52:07;;;;;;;1.80;1.70;;;28.20;37.00;;;;;;5057364;28;20477;-81
2022/08/12 04:54:36;;;;;;;1.77;1.70;;;28.20;37.00;;;;;;5057166;28;20483;-81
2022/08/12 04:57:08;;;;;;;1.90;1.70;;;28.20;36.90;;;;;;5057336;28;20988;-81
2022/08/12 04:59:36;;;;;;;2.03;1.90;;;28.20;36.90;;;;;;5057575;28;20443;-80
2022/08/12 05:02:16;;;;;;;1.80;1.70;;;28.20;36.90;;;;;;5057617;28;20424;-81
2022/08/12 05:04:49;;;;;;;1.67;1.57;;;28.20;36.90;;;;;;5057029;28;20440;-80
2022/08/12 05:07:17;;;;;;;1.80;1.80;;;28.10;36.90;;;;;;5057812;28;20454;-81
2022/08/12 05:09:47;;;;;;;1.83;1.77;;;28.10;36.90;;;;;;5057144;28;20481;-81
2022/08/12 05:12:26;;;;;;;2.20;2.10;;;28.10;36.90;;;;;;5057077;28;20421;-81
2022/08/12 05:14:54;;;;;;;1.80;1.60;;;28.10;37.00;;;;;;5056958;28;20508;-81
2022/08/12 05:17:25;;;;;;;2.00;1.90;;;28.10;37.00;;;;;;5056974;28;20477;-81
2022/08/12 05:19:55;;;;;;;1.57;1.53;;;28.10;36.80;;;;;;5056481;28;20454;-82
2022/08/12 05:22:25;;;;;;;1.80;1.70;;;28.10;36.80;;;;;;5056753;28;20447;-82
2022/08/12 05:24:54;;;;;;;1.40;1.40;;;28.10;36.80;;;;;;5056513;28;20464;-82
2022/08/12 05:27:22;;;;;;;1.70;1.70;;;28.10;36.80;;;;;;5057129;28;20471;-82
2022/08/12 05:29:50;;;;;;;2.00;1.90;;;28.00;36.90;;;;;;5056645;28;20420;-82
2022/08/12 05:32:35;;;;;;;2.00;1.80;;;28.10;37.00;;;;;;5056725;28;20925;-82
2022/08/12 05:35:06;;;;;;;1.60;1.50;;;28.10;36.80;;;;;;5056767;28;20429;-83
2022/08/12 05:37:35;;;;;;;1.97;1.87;;;28.00;36.80;;;;;;5060885;28;20544;-83
2022/08/12 05:40:05;;;;;;;2.03;1.93;;;28.00;36.80;;;;;;5060886;28;20452;-83
2022/08/12 05:42:38;;;;;;;1.90;1.80;;;28.00;36.80;;;;;;5060599;28;20878;-83
2022/08/12 05:45:07;;;;;;;1.77;1.67;;;28.00;36.80;;;;;;5060803;28;20524;-84
2022/08/12 05:47:35;;;;;;;1.60;1.50;;;28.00;36.80;;;;;;5061033;28;20500;-81
2022/08/12 05:50:20;;;;;;;1.80;1.70;;;28.00;36.80;;;;;;5060400;28;20537;-82
2022/08/12 05:52:48;;;;;;;1.83;1.73;;;27.90;36.80;;;;;;5060921;28;20421;-82
2022/08/12 05:55:21;;;;;;;1.70;1.60;;;27.90;36.90;;;;;;5060865;28;20453;-82
2022/08/12 05:57:55;;;;;;;2.10;2.00;;;27.90;36.80;;;;;;5059320;28;20481;-82
2022/08/12 06:00:24;;;;;;;1.90;1.87;;;27.90;36.80;;;;;;5062258;28;20443;-82
2022/08/12 06:02:59;;;;;;;2.07;1.97;;;27.90;36.80;;;;;;5062213;28;20446;-82
2022/08/12 06:05:28;;;;;;;1.97;1.87;;;27.90;36.80;;;;;;5061539;28;20471;-82
2022/08/12 06:07:56;;;;;;;1.87;1.77;;;27.90;36.60;;;;;;5060082;28;20444;-82
2022/08/12 06:10:31;;;;;;;1.70;1.60;;;28.00;36.70;;;;;;5059572;28;20413;-82
2022/08/12 06:13:01;;;;;;;1.40;1.37;;;28.00;36.70;;;;;;5057513;28;20480;-81
2022/08/12 06:15:29;;;;;;;1.90;1.80;;;28.00;36.60;;;;;;5056897;28;21056;-81
2022/08/12 06:18:04;;;;;;;1.67;1.60;;;28.10;36.50;;;;;;5066746;28;20547;-83
2022/08/12 06:20:43;;;;;;;2.00;1.90;;;28.20;36.50;;;;;;5064079;28;20504;-83
2022/08/12 06:23:11;;;;;;;1.33;1.33;;;28.20;36.40;;;;;;5062335;28;20445;-82
2022/08/12 06:25:41;;;;;;;1.93;1.83;;;28.20;36.20;;;;;;5064543;28;20448;-83
2022/08/12 06:28:16;;;;;;;1.20;1.20;;;28.20;36.10;;;;;;5060514;28;20445;-83
2022/08/12 06:30:45;;;;;;;1.90;1.80;;;28.30;36.20;;;;;;5060501;28;20423;-83
2022/08/12 06:33:29;;;;;;;1.67;1.57;;;28.40;36.20;;;;;;5060249;28;20433;-83
2022/08/12 06:36:18;;;;;;;2.13;2.03;;;28.40;36.00;;;;;;5059948;28;20621;-82
2022/08/12 06:38:48;;;;;;;1.70;1.60;;;28.50;35.90;;;;;;5060408;28;20466;-81
2022/08/12 06:56:38;;;;;;;1.57;1.57;;;28.80;35.00;;;;;;5070055;28;20560;-80
2022/08/12 06:59:26;;;;;;;1.50;1.40;;;29.10;35.20;;;;;;5070433;28;20431;-79
2022/08/12 07:01:54;;;;;;;1.80;1.70;;;29.10;35.40;;;;;;5070914;28;20478;-80
2022/08/12 07:04:22;;;;;;;1.90;1.80;;;29.20;35.50;;;;;;5070750;28;20500;-80
2022/08/12 07:07:07;;;;;;;1.50;1.50;;;29.30;36.00;;;;;;5070462;28;20438;-80
2022/08/12 07:09:35;;;;;;;1.70;1.60;;;29.40;35.20;;;;;;5069266;28;20493;-80
2022/08/12 07:12:26;;;;;;;1.80;1.70;;;29.50;35.10;;;;;;5069636;28;20430;-80
2022/08/12 07:15:03;;;;;;;1.30;1.30;;;29.70;34.60;;;;;;5069703;28;20461;-80
2022/08/12 07:17:34;;;;;;;1.63;1.60;;;29.90;34.80;;;;;;5069460;28;20778;-82
2022/08/12 07:20:04;;;;;;;1.47;1.37;;;30.10;34.50;;;;;;5069182;28;20477;-82
2022/08/12 07:22:33;;;;;;;1.57;1.57;;;30.30;34.30;;;;;;5069793;28;20465;-82
2022/08/12 07:27:52;;;;;;;1.60;1.50;;;30.60;33.70;;;;;;5068391;28;20449;-81
2022/08/12 07:30:20;;;;;;;1.57;1.57;;;30.80;33.60;;;;;;5068625;28;20452;-81
2022/08/12 07:32:50;;;;;;;1.63;1.63;;;30.90;33.50;;;;;;5066594;28;20445;-81
2022/08/12 07:35:19;;;;;;;1.63;1.63;;;31.10;33.40;;;;;;5066401;28;20458;-81
2022/08/12 07:37:49;;;;;;;1.50;1.40;;;31.20;33.30;;;;;;5066427;28;20540;-81
2022/08/12 07:40:17;;;;;;;1.97;1.87;;;31.40;33.20;;;;;;5066587;28;20499;-81
2022/08/12 07:42:48;;;;;;;1.50;1.50;;;31.50;33.20;;;;;;5066195;28;20441;-81
2022/08/12 07:45:18;;;;;;;1.70;1.60;;;31.70;33.10;;;;;;5066147;28;20561;-81
2022/08/12 07:47:46;;;;;;;1.90;1.80;;;31.80;33.10;;;;;;5066644;28;20545;-82
2022/08/12 07:50:16;;;;;;;1.80;1.70;;;32.00;33.10;;;;;;5066128;28;20556;-81
2022/08/12 07:52:50;;;;;;;1.80;1.70;;;32.10;33.00;;;;;;5066438;28;20475;-80
2022/08/12 07:55:18;;;;;;;1.40;1.40;;;32.20;33.00;;;;;;5065970;28;20504;-81
2022/08/12 07:57:54;;;;;;;1.67;1.57;;;32.40;32.80;;;;;;5052188;28;20450;-81
2022/08/12 08:00:22;;;;;;;1.50;1.50;;;32.50;32.70;;;;;;5052495;28;20474;-82
2022/08/12 08:02:53;;;;;;;1.70;1.70;;;32.60;32.70;;;;;;5052313;28;20477;-81
2022/08/12 08:05:22;;;;;;;1.73;1.63;;;32.80;32.70;;;;;;5052643;28;20837;-81
2022/08/12 08:07:52;;;;;;;1.50;1.50;;;33.00;32.60;;;;;;5052744;28;20804;-79
2022/08/12 08:10:20;;;;;;;1.70;1.60;;;33.20;32.60;;;;;;5052711;28;20538;-82
2022/08/12 08:12:56;;;;;;;1.60;1.60;;;33.30;32.40;;;;;;5052861;28;20940;-82
2022/08/12 08:15:25;;;;;;;1.43;1.43;;;33.40;32.40;;;;;;5053236;28;20459;-81
2022/08/12 08:18:15;;;;;;;1.43;1.43;;;33.50;32.40;;;;;;5052964;28;20435;-82
2022/08/12 08:20:54;;;;;;;1.30;1.30;;;33.80;32.40;;;;;;5052805;28;20537;-82
2022/08/12 08:24:13;;;;;;;1.27;1.23;;;33.90;32.40;;;;;;5052202;28;20932;-81
2022/08/12 08:26:26;;;;;;;1.30;1.30;;;34.10;32.20;;;;;;5052280;28;20435;-82
2022/08/12 08:28:58;;;;;;;1.23;1.23;;;34.30;32.30;;;;;;5052166;28;20443;-82
2022/08/12 08:31:26;;;;;;;1.60;1.60;;;34.40;32.20;;;;;;5052328;28;20438;-82
2022/08/12 08:33:54;;;;;;;2.20;2.00;;;34.60;32.20;;;;;;5051803;28;20462;-82
2022/08/12 08:36:43;;;;;;;1.30;1.30;;;34.70;32.20;;;;;;5052105;28;20477;-81
2022/08/12 08:39:13;;;;;;;1.70;1.70;;;34.90;32.10;;;;;;5053356;28;20508;-83
2022/08/12 08:44:47;;;;;;;1.20;1.20;;;35.10;32.20;;;;;;5055091;28;21014;-83
2022/08/12 08:47:24;;;;;;;1.43;1.43;;;35.20;32.10;;;;;;5055469;28;20446;-83
2022/08/12 08:49:53;;;;;;;1.40;1.40;;;35.40;32.20;;;;;;5055634;28;20479;-83
2022/08/12 08:52:23;;;;;;;1.33;1.33;;;35.50;32.20;;;;;;5055109;28;20454;-82
2022/08/12 08:55:08;;;;;;;1.47;1.30;;;35.60;32.10;;;;;;5054828;28;20486;-84
2022/08/12 08:57:36;;;;;;;1.33;1.33;;;35.80;32.10;;;;;;5053986;28;20476;-83
2022/08/12 09:00:14;;;;;;;3.50;1.53;;;36.00;32.10;;;;;;5052918;28;20473;-82
2022/08/12 09:02:42;;;;;;;1.30;1.30;;;36.10;32.00;;;;;;5052930;28;20454;-82
2022/08/12 09:05:25;;;;;;;1.20;1.20;;;36.30;32.10;;;;;;5052221;28;20459;-82
2022/08/12 09:07:55;;;;;;;1.30;1.30;;;36.40;32.00;;;;;;5050816;28;20443;-82
2022/08/12 09:10:41;;;;;;;1.40;1.40;;;36.60;31.80;;;;;;5051804;28;20454;-81
2022/08/12 09:13:26;;;;;;;1.50;1.50;;;36.70;31.80;;;;;;5051951;28;20450;-81
2022/08/12 09:16:16;;;;;;;1.43;1.43;;;36.90;31.80;;;;;;5051999;28;20470;-81
2022/08/12 09:18:47;;;;;;;1.70;1.60;;;37.10;31.80;;;;;;5051831;28;20970;-81
2022/08/12 09:21:22;;;;;;;1.20;1.20;;;37.30;31.60;;;;;;5052382;28;20526;-80
2022/08/12 09:24:00;;;;;;;1.30;1.30;;;37.40;31.50;;;;;;5052506;28;20497;-80
2022/08/12 09:26:35;;;;;;;1.47;1.30;;;37.60;31.40;;;;;;5064780;28;20439;-80
2022/08/12 09:29:23;;;;;;;1.63;1.57;;;37.80;31.40;;;;;;5053457;28;20441;-81
2022/08/12 09:32:13;;;;;;;1.57;1.50;;;37.90;31.40;;;;;;5055609;28;20435;-81
2022/08/12 09:35:02;;;;;;;1.40;1.40;;;38.10;31.30;;;;;;5070887;27;20455;-81
2022/08/12 09:37:30;;;;;;;1.40;1.30;;;38.40;31.20;;;;;;5061490;28;20497;-82
2022/08/12 09:40:18;;;;;;;1.50;1.40;;;38.50;31.20;;;;;;5061182;28;20443;-82
2022/08/12 09:45:53;;;;;;;1.40;1.40;;;38.90;30.90;;;;;;5055704;28;20529;-83
2022/08/12 09:48:43;;;;;;;1.47;1.47;;;39.10;30.80;;;;;;5055328;28;20435;-83
2022/08/12 09:51:23;;;;;;;1.30;1.30;;;39.30;30.70;;;;;;5055304;28;20452;-81
2022/08/12 09:54:05;;;;;;;1.30;1.30;;;39.40;30.70;;;;;;5055721;28;20984;-82
2022/08/12 09:56:53;;;;;;;1.40;1.40;;;39.50;30.60;;;;;;5055447;28;20569;-83
2022/08/12 09:59:30;;;;;;;1.33;1.33;;;39.80;30.40;;;;;;5056843;28;20466;-83
2022/08/12 10:02:18;;;;;;;1.53;1.37;;;40.00;30.40;;;;;;5057093;28;20531;-82
2022/08/12 10:05:09;;;;;;;1.27;1.27;;;40.10;30.20;;;;;;5055902;28;20451;-81
2022/08/12 10:07:44;;;;;;;1.20;1.20;;;40.40;30.10;;;;;;5055988;28;20430;-83
2022/08/12 10:10:12;;;;;;;1.23;1.23;;;40.60;30.00;;;;;;5055386;28;20450;-82
2022/08/12 10:15:43;;;;;;;1.27;1.27;;;40.90;30.00;;;;;;5055996;28;20462;-83
2022/08/12 10:18:32;;;;;;;1.30;1.30;;;41.10;29.90;;;;;;5054895;28;20430;-83
2022/08/12 10:21:07;;;;;;;1.30;1.30;;;41.40;29.70;;;;;;5055825;28;20450;-80
2022/08/12 10:23:36;;;;;;;1.37;1.27;;;41.50;29.60;;;;;;5058488;28;20462;-80
2022/08/12 10:32:17;;;;;;;1.40;1.30;;;42.10;29.20;;;;;;5057832;28;20434;-80
2022/08/12 10:34:48;;;;;;;1.40;1.40;;;42.40;29.10;;;;;;5057205;28;20458;-80
2022/08/12 10:37:25;;;;;;;1.40;1.40;;;42.50;28.90;;;;;;5056974;28;20490;-80
2022/08/12 10:40:13;;;;;;;1.30;1.30;;;42.70;28.80;;;;;;5057043;28;20443;-80
2022/08/12 10:45:34;;;;;;;1.10;1.10;;;43.10;28.60;;;;;;5057173;28;20471;-80
2022/08/12 10:48:05;;;;;;;1.40;1.30;;;43.30;28.60;;;;;;5057026;28;20434;-80
2022/08/12 10:50:54;;;;;;;1.33;1.23;;;43.50;28.40;;;;;;5056547;28;20446;-80
2022/08/12 10:53:32;;;;;;;1.30;1.30;;;43.80;28.30;;;;;;5056004;28;20472;-80
2022/08/12 10:56:14;;;;;;;1.23;1.20;;;43.90;28.10;;;;;;5055975;28;20538;-80
2022/08/12 10:58:42;;;;;;;1.20;1.20;;;44.10;28.00;;;;;;5056592;28;20448;-80
2022/08/12 11:01:14;;;;;;;1.20;1.20;;;44.30;27.80;;;;;;5056817;28;20446;-80
2022/08/12 11:04:02;;;;;;;1.30;1.30;;;44.50;27.60;;;;;;5056973;28;20458;-80
2022/08/12 11:06:52;;;;;;;1.20;1.20;;;44.70;27.50;;;;;;5055910;28;20430;-80
2022/08/12 11:09:41;;;;;;;1.07;1.07;;;45.00;27.40;;;;;;5056287;28;20441;-80
2022/08/12 11:12:29;;;;;;;1.13;1.13;;;45.20;27.30;;;;;;5056904;28;20453;-80
2022/08/12 11:15:19;;;;;;;1.10;1.10;;;45.30;27.20;;;;;;5060703;28;20513;-81
2022/08/12 11:18:07;;;;;;;1.03;1.03;;;45.50;27.00;;;;;;5061789;28;20476;-81
2022/08/12 11:20:46;;;;;;;1.17;1.07;;;45.80;26.90;;;;;;5058419;28;20445;-80
2022/08/12 11:23:14;;;;;;;1.30;1.30;;;46.10;26.60;;;;;;5056362;28;20452;-80
2022/08/12 11:26:04;;;;;;;1.33;1.33;;;46.90;26.10;;;;;;5057255;28;20438;-81
2022/08/12 11:28:34;;;;;;;1.05;1.05;;;48.00;25.10;;;;;;5055550;28;20449;-81
2022/08/12 11:31:05;;;;;;;1.02;1.02;;;49.10;24.40;;;;;;5056977;28;20229;-78
2022/08/12 11:33:33;;;;;;;0.80;0.80;;;50.20;23.70;;;;;;5059483;28;20228;-78
2022/08/12 11:36:21;;;;;;;1.00;1.00;;;51.10;23.00;;;;;;5059501;28;20207;-79
2022/08/12 11:38:49;;;;;;;0.85;0.85;;;51.90;22.40;;;;;;5060152;28;20212;-78
2022/08/12 11:41:26;;;;;;;0.77;0.77;;;52.70;22.00;;;;;;5058935;28;20197;-79
2022/08/12 11:43:59;;;;;;;1.27;0.80;;;53.50;21.50;;;;;;5060028;28;20312;-79
2022/08/12 11:46:47;;;;;;;0.85;0.85;;;54.10;21.00;;;;;;5059934;28;20204;-78
2022/08/12 11:49:20;;;;;;;0.70;0.70;;;54.50;20.70;;;;;;5059398;28;20284;-79
2022/08/12 11:52:00;;;;;;;0.70;0.70;;;55.00;20.40;;;;;;5059789;28;20209;-79
2022/08/12 11:54:29;;;;;;;1.42;0.60;;;55.30;20.20;;;;;;5058420;28;20225;-79
2022/08/12 11:56:59;;;;;;;0.70;0.70;;;55.60;20.20;;;;;;5058679;28;20280;-79
2022/08/12 11:59:29;;;;;;;0.63;0.63;;;55.70;20.10;;;;;;5059754;28;20201;-79
2022/08/12 12:02:17;;;;;;;0.60;0.60;;;56.20;19.80;;;;;;5059568;28;20354;-79
2022/08/12 12:04:48;;;;;;;0.60;0.60;;;56.40;19.80;;;;;;5058882;28;20265;-79
2022/08/12 12:07:19;;;;;;;0.60;0.60;;;56.60;19.50;;;;;;5059182;28;20201;-79
2022/08/12 12:09:47;;;;;;;1.33;0.60;;;56.60;19.50;;;;;;5058520;28;20216;-79
2022/08/12 12:12:22;;;;;;;0.60;0.60;;;56.90;19.30;;;;;;5059490;28;20200;-81
2022/08/12 12:14:50;;;;;;;0.70;0.70;;;57.10;19.30;;;;;;5058778;28;20293;-79
2022/08/12 12:17:22;;;;;;;0.60;0.60;;;57.40;19.10;;;;;;5059244;28;20217;-81
2022/08/12 12:19:51;;;;;;;0.60;0.60;;;57.50;19.00;;;;;;5059070;28;20200;-81
2022/08/12 12:22:20;;;;;;;0.60;0.60;;;58.00;18.70;;;;;;5058832;28;20201;-81
2022/08/12 12:24:57;;;;;;;0.95;0.52;;;58.30;18.60;;;;;;5058814;28;20247;-81
2022/08/12 12:27:26;;;;;;;0.70;0.70;;;58.50;18.50;;;;;;5059778;28;20201;-81
2022/08/12 12:30:15;;;;;;;0.60;0.60;;;58.50;18.40;;;;;;5058813;28;20205;-80
2022/08/12 12:32:56;;;;;;;0.60;0.60;;;58.70;18.10;;;;;;5058657;28;20204;-79
2022/08/12 12:35:24;;;;;;;0.60;0.60;;;58.90;18.00;;;;;;5058275;28;20229;-79
2022/08/12 12:38:13;;;;;;;0.60;0.60;;;59.00;17.90;;;;;;5058250;28;20713;-79
2022/08/12 12:40:42;;;;;;;0.52;0.52;;;58.90;18.20;;;;;;5058636;28;20231;-79
2022/08/12 12:43:12;;;;;;;0.60;0.60;;;58.90;18.20;;;;;;5058727;28;20217;-79
2022/08/12 12:45:40;;;;;;;0.60;0.60;;;58.90;18.20;;;;;;5058343;28;20201;-79
2022/08/12 12:48:13;;;;;;;0.60;0.60;;;59.00;17.80;;;;;;5058222;28;20301;-79
2022/08/12 12:50:43;;;;;;;0.65;0.65;;;59.00;17.90;;;;;;5058213;28;20208;-79
2022/08/12 12:53:17;;;;;;;0.50;0.50;;;59.20;17.80;;;;;;5058014;28;20329;-79
2022/08/12 12:56:05;;;;;;;0.95;0.50;;;59.20;17.90;;;;;;5059240;28;20216;-81
2022/08/12 12:58:34;;;;;;;0.60;0.60;;;59.30;17.70;;;;;;5059321;28;20244;-81
2022/08/12 13:01:02;;;;;;;0.50;0.50;;;59.40;17.70;;;;;;5058072;28;20212;-82
2022/08/12 13:03:52;;;;;;;0.50;0.50;;;59.50;17.60;;;;;;5059282;28;20221;-80
2022/08/12 13:06:24;;;;;;;0.60;0.60;;;59.40;17.60;;;;;;5059358;28;20644;-80
2022/08/12 13:08:57;;;;;;;0.60;0.60;;;59.30;17.80;;;;;;5058330;28;20208;-80
2022/08/12 13:11:30;;;;;;;0.60;0.57;;;59.30;17.80;;;;;;5058005;28;20281;-80
2022/08/12 13:14:12;;;;;;;0.60;0.60;;;59.40;17.70;;;;;;5057741;28;20288;-80
2022/08/12 13:16:59;;;;;;;0.50;0.50;;;59.30;17.80;;;;;;5059660;28;20213;-80
2022/08/12 13:19:27;;;;;;;0.60;0.60;;;59.20;17.80;;;;;;5059155;28;20193;-80
2022/08/12 13:34:51;;;;;;;0.88;0.88;;;57.30;18.20;;;;;;5076300;28;20552;-80
2022/08/12 13:37:30;;;;;;;1.85;0.80;;;51.30;22.70;;;;;;5076778;28;20207;-79
2022/08/12 13:40:18;;;;;;;0.90;0.90;;;50.80;22.70;;;;;;5078577;27;20260;-81
2022/08/12 13:42:47;;;;;;;0.95;0.95;;;50.80;22.80;;;;;;5077245;27;20243;-80
2022/08/12 13:45:17;;;;;;;0.80;0.80;;;50.60;22.80;;;;;;5077412;27;20253;-80
2022/08/12 13:47:54;;;;;;;0.80;0.80;;;50.70;22.60;;;;;;5077386;28;20235;-80
2022/08/12 13:50:31;;;;;;;0.80;0.80;;;50.80;22.50;;;;;;5075345;27;20200;-80
2022/08/12 13:53:00;;;;;;;0.80;0.80;;;51.00;22.30;;;;;;5076444;27;20226;-80
2022/08/12 13:55:50;;;;;;;0.85;0.85;;;51.00;22.40;;;;;;5077292;27;20205;-80
2022/08/12 13:58:28;;;;;;;0.75;0.75;;;51.00;22.40;;;;;;5076799;27;20221;-80
2022/08/12 14:00:57;;;;;;;0.80;0.80;;;51.00;22.20;;;;;;5076841;27;20271;-80
2022/08/12 14:03:25;;;;;;;0.77;0.77;;;51.00;22.20;;;;;;5077370;27;20241;-80
2022/08/12 14:06:03;;;;;;;0.85;0.85;;;51.00;22.10;;;;;;5076442;27;20210;-80
2022/08/12 14:08:33;;;;;;;0.90;0.90;;;51.00;22.10;;;;;;5075707;27;20204;-80
2022/08/12 14:11:01;;;;;;;0.80;0.80;;;51.00;22.20;;;;;;5075504;27;20296;-80
2022/08/12 14:13:36;;;;;;;0.88;0.85;;;50.90;22.10;;;;;;5074738;27;20667;-80
2022/08/12 14:16:23;;;;;;;0.80;0.80;;;50.80;22.10;;;;;;5080414;27;20576;-80
2022/08/12 14:19:12;;;;;;;0.80;0.80;;;50.70;22.20;;;;;;5080427;27;20263;-80
2022/08/12 14:21:53;;;;;;;0.80;0.80;;;50.50;22.20;;;;;;5078078;27;20272;-80
2022/08/12 14:24:33;;;;;;;0.80;0.80;;;50.30;22.30;;;;;;5077025;28;20235;-81
2022/08/12 14:27:03;;;;;;;0.70;0.70;;;50.10;22.30;;;;;;5077379;27;20226;-80
2022/08/12 14:29:40;;;;;;;0.90;0.90;;;49.90;22.40;;;;;;5076919;27;20204;-80
2022/08/12 14:32:33;;;;;;;0.80;0.80;;;49.80;22.50;;;;;;5074570;27;20264;-81
2022/08/12 14:35:02;;;;;;;1.48;0.88;;;49.60;22.50;;;;;;5065170;27;20301;-81
2022/08/12 14:37:32;;;;;;;0.80;0.80;;;49.40;22.70;;;;;;5062692;27;20231;-81
2022/08/12 14:40:20;;;;;;;0.93;0.90;;;49.10;22.70;;;;;;5058609;27;20201;-81
2022/08/12 14:42:55;;;;;;;0.85;0.85;;;49.00;22.80;;;;;;5058258;27;20243;-79
2022/08/12 14:45:24;;;;;;;0.90;0.90;;;48.90;22.90;;;;;;5058820;27;20250;-80
2022/08/12 14:48:13;;;;;;;1.08;1.08;;;48.80;22.90;;;;;;5059685;27;20208;-81
2022/08/12 14:50:42;;;;;;;0.82;0.82;;;48.60;23.10;;;;;;5057844;27;20453;-80
2022/08/12 14:53:32;;;;;;;1.75;0.85;;;48.40;23.10;;;;;;5057732;27;20245;-81
2022/08/12 14:56:22;;;;;;;0.90;0.90;;;48.20;23.20;;;;;;5058404;27;20430;-80
2022/08/12 15:02:19;;;;;;;0.90;0.90;;;47.80;23.30;;;;;;5057398;27;20434;-81
2022/08/12 15:04:49;;;;;;;1.00;1.00;;;47.70;23.50;;;;;;5055968;27;20474;-81
2022/08/12 15:07:17;;;;;;;0.80;0.80;;;47.50;23.50;;;;;;5054667;28;20445;-80
2022/08/12 15:10:08;;;;;;;1.00;1.00;;;47.40;23.60;;;;;;5054846;27;20438;-81
2022/08/12 15:12:37;;;;;;;1.10;1.10;;;47.20;23.60;;;;;;5057300;27;20471;-79
2022/08/12 15:15:08;;;;;;;0.90;0.90;;;47.00;23.80;;;;;;5058347;27;20470;-80
2022/08/12 15:17:39;;;;;;;1.00;1.00;;;46.80;23.80;;;;;;5057817;27;20450;-80
2022/08/12 15:20:08;;;;;;;1.00;1.00;;;46.70;24.00;;;;;;5057543;27;20936;-80
2022/08/12 15:22:56;;;;;;;1.00;1.00;;;46.50;24.00;;;;;;5059117;27;20469;-81
2022/08/12 15:25:26;;;;;;;1.03;1.03;;;46.30;24.10;;;;;;5058709;27;20466;-81
2022/08/12 15:27:55;;;;;;;0.90;0.90;;;46.20;24.30;;;;;;5058662;27;20446;-81
2022/08/12 15:30:32;;;;;;;1.13;1.13;;;46.00;24.30;;;;;;5059399;27;20446;-81
2022/08/12 15:33:01;;;;;;;0.97;0.97;;;45.80;24.40;;;;;;5059301;27;20458;-80
2022/08/12 15:35:42;;;;;;;1.07;1.07;;;45.70;24.60;;;;;;5059731;27;20450;-81
2022/08/12 15:38:20;;;;;;;1.03;1.03;;;45.50;24.60;;;;;;5059410;27;20533;-81